Time;durP1;ratioP1;P1;durP2;ratioP2;P2;SDS_P1;SDS_P2;PMS_P1;PMS_P2;Temp;Humidity;BMP_temperature;BMP_pressure;BME280_temperature;BME280_humidity;BME280_pressure;Samples;Min_cycle;Max_cycle;Signal;HPM_P1;HPM_P2
2022/09/08 00:00:33;;;;;;;17.30;15.50;;;22.10;51.90;;;;;;4989827;28;20928;-45
2022/09/08 00:03:02;;;;;;;17.87;15.97;;;22.10;52.00;;;;;;4989634;28;20439;-44
2022/09/08 00:05:29;;;;;;;26.30;16.60;;;22.10;52.00;;;;;;4989886;28;20438;-44
2022/09/08 00:07:55;;;;;;;19.10;15.50;;;22.20;51.90;;;;;;4997231;22;20490;-42
2022/09/08 00:10:22;;;;;;;16.73;15.07;;;22.20;51.80;;;;;;4988226;28;20414;-42
2022/09/08 00:12:48;;;;;;;16.57;14.50;;;22.20;51.60;;;;;;4989890;28;20403;-40
2022/09/08 00:15:14;;;;;;;16.27;14.60;;;22.20;51.50;;;;;;4989681;28;20437;-42
2022/09/08 00:17:40;;;;;;;16.80;14.70;;;22.20;51.50;;;;;;4989377;28;20193;-41
2022/09/08 00:20:08;;;;;;;15.70;14.10;;;22.10;51.60;;;;;;4989627;28;20477;-42
2022/09/08 00:22:33;;;;;;;18.07;16.27;;;22.00;51.60;;;;;;4989500;28;20407;-42
2022/09/08 00:24:59;;;;;;;21.47;17.53;;;22.00;51.90;;;;;;4989275;28;20546;-42
2022/09/08 00:27:25;;;;;;;16.53;14.90;;;22.00;52.20;;;;;;4989144;28;20184;-44
2022/09/08 00:29:51;;;;;;;17.63;15.83;;;21.90;52.30;;;;;;4989508;28;20172;-44
2022/09/08 00:32:18;;;;;;;16.10;13.43;;;21.90;52.40;;;;;;4989505;28;20168;-44
2022/09/08 00:34:44;;;;;;;18.43;16.53;;;21.90;52.40;;;;;;4989404;28;20172;-44
2022/09/08 00:37:09;;;;;;;17.90;16.00;;;21.90;52.40;;;;;;4989083;28;20491;-45
2022/09/08 00:39:35;;;;;;;22.63;15.93;;;21.90;52.40;;;;;;4991553;28;20179;-44
2022/09/08 00:42:01;;;;;;;15.73;14.10;;;21.20;51.90;;;;;;4992657;28;20172;-43
2022/09/08 00:44:48;;;;;;;18.50;16.63;;;21.90;52.30;;;;;;4992792;28;20211;-44
2022/09/08 00:47:22;;;;;;;15.53;13.93;;;21.90;52.00;;;;;;4992384;28;20226;-44
2022/09/08 00:50:00;;;;;;;20.80;18.70;;;21.90;52.10;;;;;;4992663;28;20426;-44
2022/09/08 00:52:30;;;;;;;16.63;14.93;;;21.90;52.10;;;;;;4992759;28;20402;-44
2022/09/08 00:54:56;;;;;;;18.50;16.70;;;21.80;52.10;;;;;;4992544;28;20395;-44
2022/09/08 00:57:22;;;;;;;17.50;15.70;;;21.80;52.10;;;;;;4992189;28;20433;-44
2022/09/08 00:59:48;;;;;;;17.57;15.80;;;21.80;52.10;;;;;;4992519;28;20398;-43
2022/09/08 01:02:24;;;;;;;16.23;14.50;;;21.80;52.10;;;;;;4992523;28;20180;-43
2022/09/08 01:05:13;;;;;;;21.23;16.07;;;21.80;51.90;;;;;;4992556;28;20450;-42
2022/09/08 01:13:50;;;;;;;15.63;13.70;;;21.70;52.10;;;;;;4992312;28;20410;-43
2022/09/08 01:16:15;;;;;;;16.57;14.83;;;21.70;52.30;;;;;;4992149;28;20476;-43
2022/09/08 01:18:42;;;;;;;16.70;14.50;;;21.60;52.10;;;;;;4992141;28;20431;-44
2022/09/08 01:21:19;;;;;;;17.67;15.93;;;21.60;52.10;;;;;;4992095;28;20174;-43
2022/09/08 01:24:26;;;;;;;17.33;15.57;;;21.60;52.10;;;;;;4992010;28;20413;-43
2022/09/08 01:27:11;;;;;;;17.47;15.67;;;21.60;52.20;;;;;;4992216;28;20481;-43
2022/09/08 01:29:40;;;;;;;18.33;16.43;;;21.50;52.40;;;;;;4992037;28;20423;-43
2022/09/08 01:32:09;;;;;;;16.90;15.10;;;21.50;52.50;;;;;;4992168;28;20414;-43
2022/09/08 01:34:40;;;;;;;19.70;15.40;;;21.50;52.60;;;;;;4992000;28;20407;-44
2022/09/08 01:37:05;;;;;;;16.20;14.50;;;21.40;52.60;;;;;;4991835;28;20434;-44
2022/09/08 01:39:31;;;;;;;18.73;15.30;;;21.40;52.70;;;;;;4991841;28;20758;-44
2022/09/08 01:41:57;;;;;;;18.50;16.50;;;21.40;52.70;;;;;;4991958;28;20172;-44
2022/09/08 01:44:23;;;;;;;18.13;16.23;;;21.50;52.70;;;;;;4991690;28;20272;-42
2022/09/08 01:46:49;;;;;;;16.17;13.90;;;21.50;52.50;;;;;;4991464;28;20192;-44
2022/09/08 01:49:14;;;;;;;17.13;15.33;;;21.50;52.30;;;;;;4991915;28;20578;-44
2022/09/08 01:51:40;;;;;;;17.10;15.37;;;21.40;52.10;;;;;;4990708;28;20467;-43
2022/09/08 01:54:06;;;;;;;18.40;15.43;;;21.40;52.10;;;;;;4991727;28;20187;-44
2022/09/08 01:56:32;;;;;;;18.07;16.27;;;21.40;52.10;;;;;;4991311;28;20221;-43
2022/09/08 01:58:58;;;;;;;18.50;15.13;;;21.40;52.10;;;;;;4991794;28;20228;-44
2022/09/08 02:01:24;;;;;;;19.20;15.10;;;21.40;52.10;;;;;;4991545;28;20493;-44
2022/09/08 02:03:50;;;;;;;17.63;15.90;;;21.40;52.10;;;;;;4991709;28;20216;-43
2022/09/08 02:06:16;;;;;;;15.90;14.40;;;21.40;52.10;;;;;;4991531;28;20786;-43
2022/09/08 02:08:43;;;;;;;18.13;16.30;;;21.40;52.20;;;;;;4991328;28;20577;-44
2022/09/08 02:11:09;;;;;;;17.37;15.67;;;21.30;52.30;;;;;;4991451;28;20827;-43
2022/09/08 02:13:35;;;;;;;18.63;16.60;;;21.40;52.40;;;;;;4991275;28;20766;-42
2022/09/08 02:16:04;;;;;;;18.47;16.77;;;21.30;52.40;;;;;;4991342;28;20910;-42
2022/09/08 02:18:31;;;;;;;19.17;17.37;;;21.30;52.40;;;;;;4991162;28;20435;-44
2022/09/08 02:21:06;;;;;;;18.07;16.13;;;21.30;52.20;;;;;;4991320;28;20438;-44
2022/09/08 02:23:32;;;;;;;19.87;16.43;;;21.30;52.20;;;;;;4991256;28;20414;-43
2022/09/08 02:25:58;;;;;;;18.80;16.90;;;21.30;52.40;;;;;;4990930;28;20537;-43
2022/09/08 02:28:23;;;;;;;19.30;16.30;;;21.20;52.50;;;;;;4991113;28;20530;-43
2022/09/08 02:30:49;;;;;;;16.43;14.83;;;21.20;52.70;;;;;;4991105;28;20171;-44
2022/09/08 02:33:16;;;;;;;20.70;15.70;;;21.20;52.70;;;;;;4991095;28;20182;-44
2022/09/08 02:35:42;;;;;;;17.23;15.37;;;21.20;52.60;;;;;;4991038;28;20258;-43
2022/09/08 02:38:07;;;;;;;17.33;15.53;;;21.30;52.50;;;;;;4990950;28;20518;-43
2022/09/08 02:40:33;;;;;;;18.67;16.70;;;21.30;52.40;;;;;;4990972;28;20185;-42
2022/09/08 02:42:59;;;;;;;19.20;15.63;;;21.30;52.50;;;;;;4990828;28;20677;-45
2022/09/08 02:45:25;;;;;;;20.53;16.80;;;21.20;52.50;;;;;;4991006;28;20207;-43
2022/09/08 02:47:51;;;;;;;19.30;17.30;;;21.20;52.60;;;;;;4990601;28;20628;-43
2022/09/08 02:50:17;;;;;;;19.13;17.07;;;21.20;52.80;;;;;;4990709;28;20407;-43
2022/09/08 02:52:43;;;;;;;16.83;15.00;;;21.20;52.70;;;;;;4991045;28;20187;-44
2022/09/08 02:55:09;;;;;;;17.37;15.50;;;21.30;52.60;;;;;;4990724;28;20179;-42
2022/09/08 02:57:34;;;;;;;19.43;17.20;;;21.30;52.40;;;;;;4990690;28;20214;-43
2022/09/08 03:00:00;;;;;;;43.07;17.43;;;21.30;52.40;;;;;;4990716;28;20418;-43
2022/09/08 03:02:26;;;;;;;14.27;12.87;;;21.30;52.30;;;;;;4990782;28;20256;-43
2022/09/08 03:04:52;;;;;;;17.27;15.50;;;21.30;52.40;;;;;;4990529;28;20454;-44
2022/09/08 03:07:18;;;;;;;17.30;15.40;;;21.30;52.40;;;;;;4990219;28;20234;-43
2022/09/08 03:09:44;;;;;;;19.87;17.77;;;21.30;52.40;;;;;;4990544;28;20210;-43
2022/09/08 03:12:10;;;;;;;17.30;15.50;;;21.30;52.50;;;;;;4990463;28;20816;-44
2022/09/08 03:14:36;;;;;;;18.77;16.27;;;21.30;52.50;;;;;;4990698;28;20494;-44
2022/09/08 03:17:02;;;;;;;17.80;16.03;;;21.30;52.40;;;;;;4990124;28;20251;-43
2022/09/08 03:19:28;;;;;;;16.80;15.10;;;21.30;52.50;;;;;;4990315;28;20411;-44
2022/09/08 03:21:54;;;;;;;17.73;15.20;;;21.30;52.50;;;;;;4990387;28;20422;-42
2022/09/08 03:24:20;;;;;;;18.50;16.10;;;21.30;52.50;;;;;;4990256;28;20215;-43
2022/09/08 03:26:46;;;;;;;18.70;16.70;;;21.20;52.50;;;;;;4989917;28;20437;-43
2022/09/08 03:29:12;;;;;;;17.50;15.30;;;21.20;52.50;;;;;;4990274;28;20163;-44
2022/09/08 03:31:37;;;;;;;16.87;15.13;;;21.10;52.50;;;;;;4990265;28;20845;-43
2022/09/08 03:34:03;;;;;;;17.80;15.20;;;21.20;52.40;;;;;;4990394;28;20172;-43
2022/09/08 03:36:29;;;;;;;16.90;15.13;;;21.20;52.30;;;;;;4990131;28;20662;-42
2022/09/08 03:38:54;;;;;;;17.03;15.27;;;21.20;52.40;;;;;;4990058;28;20172;-43
2022/09/08 03:41:20;;;;;;;17.07;15.07;;;21.20;52.40;;;;;;4990081;28;20175;-44
2022/09/08 03:43:49;;;;;;;19.33;17.20;;;21.20;52.10;;;;;;4990354;28;20218;-43
2022/09/08 03:46:15;;;;;;;16.67;14.97;;;21.20;52.10;;;;;;4989985;28;20309;-44
2022/09/08 03:48:41;;;;;;;17.47;15.50;;;21.20;52.00;;;;;;4989838;28;20425;-44
2022/09/08 03:51:24;;;;;;;18.37;16.47;;;21.10;52.00;;;;;;4989968;28;20897;-42
2022/09/08 03:53:50;;;;;;;19.57;17.33;;;21.10;52.00;;;;;;4989927;28;20407;-42
2022/09/08 03:56:16;;;;;;;16.03;14.53;;;21.00;52.30;;;;;;4989685;28;20418;-44
2022/09/08 03:58:43;;;;;;;17.70;15.52;;;21.00;52.30;;;;;;4989885;28;20434;-42
2022/09/08 04:01:14;;;;;;;16.07;14.47;;;21.00;52.40;;;;;;4989916;28;20187;-43
2022/09/08 04:03:40;;;;;;;17.73;15.68;;;21.00;52.30;;;;;;4989856;28;20402;-42
2022/09/08 04:06:06;;;;;;;18.33;16.50;;;21.00;52.30;;;;;;4989453;28;20762;-42
2022/09/08 04:08:32;;;;;;;16.93;15.23;;;21.10;52.30;;;;;;4989650;28;20953;-42
2022/09/08 04:10:58;;;;;;;19.00;15.30;;;21.00;52.20;;;;;;4989959;28;20407;-42
2022/09/08 04:13:25;;;;;;;15.88;13.65;;;21.00;52.20;;;;;;4990531;28;20460;-43
2022/09/08 04:15:51;;;;;;;16.77;13.63;;;21.00;52.20;;;;;;4993211;28;20183;-44
2022/09/08 04:18:16;;;;;;;15.93;14.33;;;21.00;52.10;;;;;;4993005;28;20545;-44
2022/09/08 04:20:42;;;;;;;15.77;14.17;;;21.00;52.10;;;;;;4993092;28;20642;-44
2022/09/08 04:23:08;;;;;;;16.63;14.93;;;21.00;52.30;;;;;;4992953;28;20180;-43
2022/09/08 04:25:34;;;;;;;17.93;16.07;;;20.90;52.40;;;;;;4992737;28;20199;-44
2022/09/08 04:27:59;;;;;;;19.77;16.27;;;21.00;52.60;;;;;;4992889;28;20187;-44
2022/09/08 04:30:25;;;;;;;16.03;14.47;;;21.00;52.80;;;;;;4993020;28;20172;-44
2022/09/08 04:32:51;;;;;;;17.47;15.60;;;21.00;52.90;;;;;;4992875;28;20174;-42
2022/09/08 04:35:17;;;;;;;17.43;15.60;;;21.00;52.80;;;;;;4992886;28;20194;-44
2022/09/08 04:37:43;;;;;;;16.83;15.10;;;21.10;52.90;;;;;;4992837;28;20207;-43
2022/09/08 04:40:09;;;;;;;16.30;14.67;;;21.10;52.90;;;;;;4992765;28;20171;-43
2022/09/08 04:42:36;;;;;;;19.63;16.33;;;21.10;53.00;;;;;;4992853;28;20172;-42
2022/09/08 04:45:02;;;;;;;16.47;14.90;;;21.00;52.90;;;;;;4992869;28;20450;-44
2022/09/08 04:47:28;;;;;;;16.33;14.63;;;21.00;53.00;;;;;;4992488;28;20453;-43
2022/09/08 04:49:54;;;;;;;18.60;16.13;;;21.10;53.30;;;;;;4992834;28;20918;-42
2022/09/08 04:52:24;;;;;;;18.53;15.80;;;21.10;53.40;;;;;;4992841;28;20228;-44
2022/09/08 04:54:49;;;;;;;17.60;15.27;;;21.10;53.40;;;;;;4992608;28;20168;-44
2022/09/08 04:57:15;;;;;;;18.07;16.20;;;21.10;53.50;;;;;;4992355;28;20432;-43
2022/09/08 04:59:41;;;;;;;19.27;17.47;;;21.10;53.60;;;;;;4992514;28;20168;-43
2022/09/08 05:02:07;;;;;;;16.77;15.10;;;21.20;53.50;;;;;;4992491;28;20183;-43
2022/09/08 05:04:33;;;;;;;21.20;16.13;;;21.20;53.60;;;;;;4992281;28;20206;-43
2022/09/08 05:06:58;;;;;;;18.77;16.70;;;21.30;53.60;;;;;;4991978;28;20451;-43
2022/09/08 05:09:25;;;;;;;18.87;16.40;;;21.30;53.80;;;;;;4992577;28;20399;-44
2022/09/08 05:11:50;;;;;;;17.77;14.53;;;21.30;53.90;;;;;;4992380;28;20171;-44
2022/09/08 05:14:16;;;;;;;20.23;16.10;;;21.30;53.80;;;;;;4992287;28;20413;-44
2022/09/08 05:16:42;;;;;;;17.23;15.50;;;21.30;53.90;;;;;;4991917;28;20662;-44
2022/09/08 05:19:11;;;;;;;16.97;15.20;;;21.40;53.90;;;;;;4992071;28;20320;-43
2022/09/08 05:21:37;;;;;;;16.60;14.90;;;21.40;53.90;;;;;;4992129;28;20535;-43
2022/09/08 05:24:03;;;;;;;19.23;17.40;;;21.40;53.90;;;;;;4992199;28;20422;-44
2022/09/08 05:26:30;;;;;;;16.53;14.93;;;21.50;53.90;;;;;;4990483;28;20699;-43
2022/09/08 05:28:56;;;;;;;19.13;15.70;;;21.50;54.20;;;;;;4992068;28;20410;-42
2022/09/08 05:31:28;;;;;;;19.00;15.93;;;21.50;54.40;;;;;;4991904;28;20407;-44
2022/09/08 05:33:56;;;;;;;19.57;16.83;;;21.50;54.50;;;;;;4991873;28;20391;-45
2022/09/08 05:36:25;;;;;;;16.70;14.93;;;21.50;54.60;;;;;;4991703;28;20965;-44
2022/09/08 05:38:51;;;;;;;19.70;15.73;;;21.50;54.60;;;;;;4991945;28;20182;-44
2022/09/08 05:41:17;;;;;;;17.73;15.60;;;21.60;54.50;;;;;;4992063;28;20770;-44
2022/09/08 05:43:44;;;;;;;20.23;16.97;;;21.60;54.50;;;;;;4991808;28;20403;-43
2022/09/08 05:46:10;;;;;;;19.33;15.53;;;21.70;54.60;;;;;;4991684;28;20455;-43
2022/09/08 05:48:36;;;;;;;19.47;16.30;;;21.70;54.70;;;;;;4991819;28;20457;-44
2022/09/08 05:51:07;;;;;;;20.07;15.60;;;21.80;54.70;;;;;;4992057;28;20453;-44
2022/09/08 05:53:33;;;;;;;18.23;14.03;;;21.90;54.80;;;;;;4991892;28;20437;-43
2022/09/08 05:56:04;;;;;;;15.67;13.97;;;21.90;54.80;;;;;;4991499;28;20945;-43
2022/09/08 05:58:30;;;;;;;19.30;17.20;;;22.00;54.80;;;;;;4991576;28;20199;-42
2022/09/08 06:00:59;;;;;;;20.30;15.20;;;22.00;55.10;;;;;;4991531;28;20415;-44
2022/09/08 06:03:26;;;;;;;20.97;16.23;;;22.00;55.70;;;;;;4991829;28;20227;-43
2022/09/08 06:05:53;;;;;;;17.10;15.00;;;22.00;55.50;;;;;;4991180;28;20454;-42
2022/09/08 06:08:21;;;;;;;17.53;14.50;;;22.10;55.60;;;;;;4991406;28;20980;-44
2022/09/08 06:10:53;;;;;;;15.13;13.30;;;22.10;55.50;;;;;;4991486;28;20444;-44
2022/09/08 06:13:21;;;;;;;18.03;15.80;;;22.20;55.60;;;;;;4992060;28;20414;-43
2022/09/08 06:15:48;;;;;;;15.00;12.97;;;22.20;56.40;;;;;;4991056;28;20414;-44
2022/09/08 06:18:15;;;;;;;12.53;11.30;;;22.20;56.70;;;;;;4991533;28;20434;-43
2022/09/08 06:20:41;;;;;;;13.83;12.43;;;22.30;56.70;;;;;;4991282;28;20394;-43
2022/09/08 06:23:07;;;;;;;15.33;12.57;;;22.30;56.60;;;;;;4991504;28;20415;-43
2022/09/08 06:25:42;;;;;;;14.40;12.23;;;22.50;56.50;;;;;;4991022;28;20214;-43
2022/09/08 06:28:39;;;;;;;22.33;13.90;;;22.60;56.30;;;;;;4991477;28;20277;-44
2022/09/08 06:31:12;;;;;;;13.00;11.70;;;22.60;56.80;;;;;;4991183;28;20410;-43
2022/09/08 06:33:41;;;;;;;14.43;12.90;;;22.70;56.90;;;;;;4991336;28;20827;-42
2022/09/08 06:36:22;;;;;;;13.30;12.00;;;22.80;56.70;;;;;;4990335;28;20481;-43
2022/09/08 06:38:56;;;;;;;13.83;12.63;;;22.90;56.40;;;;;;4991272;28;20778;-43
2022/09/08 06:41:30;;;;;;;13.63;12.33;;;23.00;56.00;;;;;;4991204;28;20397;-43
2022/09/08 06:44:05;;;;;;;17.60;13.20;;;23.10;55.90;;;;;;4991241;28;20452;-43
2022/09/08 06:46:37;;;;;;;16.70;12.90;;;23.10;55.90;;;;;;4989329;28;20500;-44
2022/09/08 06:49:03;;;;;;;11.97;10.60;;;23.10;55.70;;;;;;4990840;28;20434;-42
2022/09/08 06:51:55;;;;;;;14.73;12.50;;;23.10;55.50;;;;;;4991082;28;20759;-43
2022/09/08 06:54:54;;;;;;;12.67;11.37;;;23.20;55.20;;;;;;4990780;28;20410;-43
2022/09/08 06:57:39;;;;;;;12.60;11.13;;;23.30;54.90;;;;;;4993694;28;20474;-44
2022/09/08 07:00:08;;;;;;;13.97;12.43;;;23.40;54.50;;;;;;4990600;28;20417;-44
2022/09/08 07:02:53;;;;;;;12.17;11.00;;;23.30;55.20;;;;;;4990588;28;20407;-45
2022/09/08 07:05:56;;;;;;;13.40;12.00;;;23.40;54.60;;;;;;4990704;28;20450;-44
2022/09/08 07:08:37;;;;;;;14.10;11.13;;;23.50;54.50;;;;;;4989062;28;20864;-44
2022/09/08 07:11:29;;;;;;;19.10;11.83;;;23.60;54.30;;;;;;4990570;28;20821;-44
2022/09/08 07:14:06;;;;;;;12.33;11.20;;;23.60;54.00;;;;;;4990457;28;20410;-44
2022/09/08 07:16:46;;;;;;;12.20;11.00;;;23.50;54.00;;;;;;4990443;28;20464;-43
2022/09/08 07:19:17;;;;;;;15.57;11.50;;;23.50;53.80;;;;;;4990577;28;20391;-43
2022/09/08 07:21:52;;;;;;;12.50;10.90;;;23.60;53.80;;;;;;4990670;28;20471;-44
2022/09/08 07:24:23;;;;;;;12.87;11.57;;;23.60;53.80;;;;;;4990560;28;20803;-44
2022/09/08 07:26:57;;;;;;;14.80;12.00;;;23.50;53.70;;;;;;4990052;28;20427;-42
2022/09/08 07:29:30;;;;;;;15.43;13.40;;;23.60;53.70;;;;;;4990368;28;20411;-44
2022/09/08 07:31:57;;;;;;;13.03;11.73;;;23.60;53.60;;;;;;4990320;28;20402;-44
2022/09/08 07:34:27;;;;;;;13.80;11.40;;;23.60;53.60;;;;;;4990428;28;20418;-43
2022/09/08 07:37:17;;;;;;;13.03;11.40;;;23.60;53.40;;;;;;4989923;28;21262;-42
2022/09/08 07:40:04;;;;;;;13.33;11.93;;;23.70;53.40;;;;;;4990309;28;20980;-43
2022/09/08 07:42:31;;;;;;;13.97;12.40;;;23.70;53.40;;;;;;4990029;28;20417;-43
2022/09/08 07:45:00;;;;;;;13.77;12.40;;;23.70;53.50;;;;;;4989986;28;20448;-44
2022/09/08 07:47:41;;;;;;;14.10;10.93;;;23.70;53.30;;;;;;4989487;28;20501;-44
2022/09/08 07:50:16;;;;;;;14.37;12.87;;;23.80;53.20;;;;;;4989973;28;20898;-44
2022/09/08 07:53:00;;;;;;;12.90;11.60;;;23.80;53.20;;;;;;4990062;28;20418;-44
2022/09/08 07:55:41;;;;;;;13.20;11.90;;;23.80;53.20;;;;;;4989778;28;20417;-44
2022/09/08 07:58:18;;;;;;;12.97;11.87;;;23.80;53.30;;;;;;4989739;28;20434;-44
2022/09/08 08:01:00;;;;;;;14.17;12.80;;;23.80;53.50;;;;;;4990089;28;20793;-44
2022/09/08 08:03:29;;;;;;;14.43;12.20;;;23.90;53.60;;;;;;4989871;28;20421;-44
2022/09/08 08:06:08;;;;;;;16.07;11.83;;;23.90;53.60;;;;;;4989460;28;20462;-42
2022/09/08 08:08:40;;;;;;;14.13;12.77;;;24.00;53.40;;;;;;4989657;28;20464;-44
2022/09/08 08:11:38;;;;;;;15.13;13.63;;;24.00;53.30;;;;;;4989723;28;20486;-44
2022/09/08 08:14:23;;;;;;;14.00;12.70;;;24.00;53.50;;;;;;4989586;28;20403;-44
2022/09/08 08:17:04;;;;;;;14.57;13.20;;;24.00;53.60;;;;;;4989375;28;20439;-43
2022/09/08 08:19:52;;;;;;;14.73;13.23;;;24.00;53.90;;;;;;4989700;28;20411;-44
2022/09/08 08:22:52;;;;;;;14.40;12.90;;;24.10;54.30;;;;;;4989570;28;20507;-43
2022/09/08 08:25:29;;;;;;;14.27;12.83;;;24.10;54.50;;;;;;4995734;28;20996;-44
2022/09/08 08:28:16;;;;;;;15.60;14.00;;;24.10;54.70;;;;;;4989504;28;20836;-43
2022/09/08 08:30:47;;;;;;;16.60;14.90;;;24.20;54.90;;;;;;4989840;28;20426;-46
2022/09/08 08:33:21;;;;;;;14.87;13.37;;;24.20;54.90;;;;;;4989802;28;20415;-44
2022/09/08 08:35:58;;;;;;;16.50;14.70;;;24.20;54.90;;;;;;4989282;28;20993;-45
2022/09/08 08:38:30;;;;;;;15.93;14.37;;;24.20;55.00;;;;;;4989614;28;20469;-45
2022/09/08 08:40:58;;;;;;;16.60;14.20;;;24.20;54.90;;;;;;4989501;28;20509;-44
2022/09/08 08:43:50;;;;;;;18.60;16.80;;;24.20;55.00;;;;;;4989311;28;20410;-43
2022/09/08 08:46:31;;;;;;;17.00;15.40;;;24.20;55.00;;;;;;4989038;28;20868;-45
2022/09/08 08:49:22;;;;;;;20.07;15.60;;;24.20;55.10;;;;;;4989340;28;20399;-44
2022/09/08 08:52:21;;;;;;;20.63;16.50;;;24.20;55.10;;;;;;4989535;28;20596;-44
2022/09/08 08:55:03;;;;;;;15.20;13.63;;;24.30;55.20;;;;;;4989260;28;20875;-44
2022/09/08 08:58:00;;;;;;;13.33;12.00;;;24.30;55.40;;;;;;4987817;28;20426;-44
2022/09/08 09:00:51;;;;;;;15.87;12.33;;;24.30;55.20;;;;;;4991376;28;20493;-43
2022/09/08 09:03:19;;;;;;;15.93;12.70;;;24.30;55.30;;;;;;4992490;28;20844;-44
2022/09/08 09:05:50;;;;;;;16.00;10.93;;;24.30;55.60;;;;;;4992142;28;20454;-44
2022/09/08 09:08:34;;;;;;;10.83;7.50;;;24.30;55.60;;;;;;4992070;28;20454;-44
2022/09/08 09:11:21;;;;;;;10.47;5.60;;;24.20;55.20;;;;;;4992242;28;20415;-44
2022/09/08 09:14:06;;;;;;;6.50;5.33;;;24.20;55.10;;;;;;4992338;28;20410;-45
2022/09/08 09:16:37;;;;;;;6.90;4.30;;;24.20;55.30;;;;;;4991919;28;20445;-43
2022/09/08 09:19:23;;;;;;;5.80;4.40;;;24.20;55.40;;;;;;4992196;28;20424;-44
2022/09/08 09:22:07;;;;;;;5.13;4.33;;;24.20;55.40;;;;;;4992463;28;20419;-45
2022/09/08 09:24:50;;;;;;;4.83;4.13;;;24.10;55.40;;;;;;4992165;28;20818;-45
2022/09/08 09:27:32;;;;;;;4.83;4.17;;;24.10;55.40;;;;;;4992130;28;20433;-44
2022/09/08 09:30:26;;;;;;;5.97;3.40;;;24.10;55.40;;;;;;4992127;28;20387;-44
2022/09/08 09:32:52;;;;;;;3.43;2.33;;;24.10;55.00;;;;;;4992092;28;20403;-45
2022/09/08 09:35:24;;;;;;;5.10;3.10;;;24.00;55.00;;;;;;4991920;28;20411;-43
2022/09/08 09:38:13;;;;;;;4.00;3.30;;;24.00;55.20;;;;;;4991907;28;20199;-45
2022/09/08 09:41:06;;;;;;;3.80;2.70;;;24.00;55.00;;;;;;4992051;28;20403;-45
2022/09/08 09:43:45;;;;;;;2.57;2.37;;;24.00;55.30;;;;;;4992027;28;20766;-45
2022/09/08 09:46:36;;;;;;;4.50;2.80;;;23.90;55.10;;;;;;4991701;28;21021;-43
2022/09/08 09:49:31;;;;;;;3.40;2.83;;;23.90;55.00;;;;;;4991988;28;20415;-44
2022/09/08 09:52:11;;;;;;;3.90;2.93;;;23.90;55.00;;;;;;4991748;28;20387;-45
2022/09/08 09:54:46;;;;;;;6.17;3.60;;;23.90;55.20;;;;;;4991728;28;20414;-43
2022/09/08 09:57:42;;;;;;;5.50;3.83;;;23.80;55.30;;;;;;4991641;28;20430;-45
2022/09/08 10:00:21;;;;;;;9.00;3.80;;;23.90;55.40;;;;;;4991882;28;20817;-45
2022/09/08 10:03:24;;;;;;;7.40;5.27;;;23.80;55.40;;;;;;4991783;28;20430;-44
2022/09/08 10:06:21;;;;;;;7.63;4.50;;;23.90;55.40;;;;;;4991443;28;20466;-45
2022/09/08 10:09:14;;;;;;;6.30;4.23;;;23.90;55.60;;;;;;4991219;28;20527;-44
2022/09/08 10:12:22;;;;;;;11.67;4.50;;;23.80;55.60;;;;;;4990758;28;20481;-45
2022/09/08 10:15:15;;;;;;;5.70;4.33;;;23.80;55.70;;;;;;5000700;28;20437;-44
2022/09/08 10:18:05;;;;;;;6.77;4.57;;;23.80;55.90;;;;;;4991394;28;20438;-45
2022/09/08 10:20:44;;;;;;;9.50;4.30;;;23.80;56.00;;;;;;4991340;28;20427;-43
2022/09/08 10:23:18;;;;;;;4.00;3.57;;;23.80;56.10;;;;;;4991256;28;20985;-45
2022/09/08 10:25:53;;;;;;;7.97;4.77;;;23.80;56.20;;;;;;4991197;28;20537;-44
2022/09/08 10:28:46;;;;;;;10.87;4.80;;;23.80;56.20;;;;;;4991108;28;20426;-44
2022/09/08 10:31:14;;;;;;;5.93;4.63;;;23.80;56.30;;;;;;4991209;28;20464;-43
2022/09/08 10:34:02;;;;;;;9.67;5.17;;;23.80;56.40;;;;;;4991003;28;20459;-45
2022/09/08 10:36:42;;;;;;;7.03;5.40;;;23.70;56.40;;;;;;4990937;28;20414;-45
2022/09/08 10:40:04;;;;;;;9.10;5.30;;;23.70;56.60;;;;;;4991014;28;20411;-44
2022/09/08 10:42:51;;;;;;;9.03;6.30;;;23.70;56.70;;;;;;4991297;28;20755;-42
2022/09/08 10:45:55;;;;;;;12.80;6.67;;;23.60;56.80;;;;;;4990806;28;20853;-45
2022/09/08 10:48:21;;;;;;;14.10;6.20;;;23.60;56.80;;;;;;5000043;28;20536;-45
2022/09/08 10:50:58;;;;;;;14.10;6.90;;;23.60;56.90;;;;;;4991036;28;20502;-45
2022/09/08 10:53:33;;;;;;;7.37;5.37;;;23.60;57.00;;;;;;4990793;28;20160;-44
2022/09/08 10:56:13;;;;;;;11.60;6.60;;;23.60;57.20;;;;;;4990548;28;20414;-45
2022/09/08 10:58:51;;;;;;;9.53;6.80;;;23.50;57.40;;;;;;4990558;28;20434;-45
2022/09/08 11:01:48;;;;;;;9.73;8.47;;;23.50;57.60;;;;;;4990958;28;20807;-45
2022/09/08 11:04:35;;;;;;;9.30;8.33;;;23.50;57.70;;;;;;4990860;28;20395;-45
2022/09/08 11:07:26;;;;;;;10.80;8.20;;;23.50;57.70;;;;;;4990127;28;20458;-46
2022/09/08 11:10:10;;;;;;;10.10;7.80;;;23.50;57.70;;;;;;4990665;28;20403;-44
2022/09/08 11:12:51;;;;;;;8.20;6.97;;;23.50;57.90;;;;;;4990685;28;20448;-45
2022/09/08 11:15:41;;;;;;;10.10;7.93;;;23.60;58.00;;;;;;4990717;28;20406;-42
2022/09/08 11:18:35;;;;;;;12.27;8.50;;;23.60;57.90;;;;;;4990739;28;20419;-42
2022/09/08 11:21:07;;;;;;;13.50;9.13;;;23.60;58.00;;;;;;4990605;28;20406;-41
2022/09/08 11:23:57;;;;;;;9.77;8.77;;;23.60;58.00;;;;;;4990611;28;20404;-43
2022/09/08 11:26:35;;;;;;;9.60;8.53;;;23.60;58.00;;;;;;4990358;28;20465;-43
2022/09/08 11:29:09;;;;;;;10.57;7.97;;;23.60;57.90;;;;;;4990426;28;20383;-43
2022/09/08 11:32:03;;;;;;;12.13;8.87;;;23.60;57.90;;;;;;4990625;28;20446;-42
2022/09/08 11:34:38;;;;;;;9.33;8.23;;;23.60;57.90;;;;;;4990484;28;20410;-42
2022/09/08 11:37:06;;;;;;;10.23;9.13;;;23.60;58.00;;;;;;4989923;28;20414;-42
2022/09/08 11:40:05;;;;;;;15.33;10.10;;;23.60;58.10;;;;;;4990118;28;20921;-42
2022/09/08 11:42:50;;;;;;;11.57;8.90;;;23.60;58.00;;;;;;4990383;28;20387;-43
2022/09/08 11:45:34;;;;;;;9.47;7.93;;;23.60;58.20;;;;;;4990025;28;20449;-41
2022/09/08 11:48:30;;;;;;;9.03;7.40;;;23.60;58.20;;;;;;4989988;28;20521;-43
2022/09/08 11:51:02;;;;;;;12.10;6.40;;;23.60;58.20;;;;;;4997935;28;20775;-43
2022/09/08 11:53:46;;;;;;;12.23;7.10;;;23.50;58.30;;;;;;4989774;28;20403;-44
2022/09/08 11:56:12;;;;;;;11.40;7.47;;;23.50;58.00;;;;;;4989813;28;20463;-43
2022/09/08 11:59:05;;;;;;;6.70;5.60;;;23.50;58.20;;;;;;4990043;28;20422;-43
2022/09/08 12:02:03;;;;;;;5.47;4.47;;;23.50;58.10;;;;;;4988659;28;20164;-42
2022/09/08 12:05:04;;;;;;;6.10;4.57;;;23.40;58.00;;;;;;4989756;28;20415;-42
2022/09/08 12:07:33;;;;;;;5.13;4.67;;;23.40;58.10;;;;;;5006834;28;20468;-42
2022/09/08 12:10:10;;;;;;;6.00;5.10;;;23.40;58.20;;;;;;4989986;28;20417;-43
2022/09/08 12:12:43;;;;;;;5.80;4.60;;;23.40;58.20;;;;;;4990043;28;20403;-43
2022/09/08 12:15:46;;;;;;;6.40;4.30;;;23.50;58.30;;;;;;4990206;28;20415;-43
2022/09/08 12:18:15;;;;;;;4.10;3.53;;;23.60;58.30;;;;;;4989781;28;20441;-42
2022/09/08 12:21:05;;;;;;;3.37;3.07;;;23.60;58.00;;;;;;4989839;28;20758;-42
2022/09/08 12:24:12;;;;;;;4.83;2.80;;;23.70;57.70;;;;;;4990016;28;20395;-42
2022/09/08 12:27:02;;;;;;;4.37;2.93;;;23.70;57.60;;;;;;4989311;28;20997;-42
2022/09/08 12:29:34;;;;;;;3.10;2.60;;;23.60;57.60;;;;;;4989529;28;20398;-43
2022/09/08 12:32:27;;;;;;;3.53;3.00;;;23.70;57.60;;;;;;4989822;28;20383;-43
2022/09/08 12:35:05;;;;;;;6.00;3.77;;;23.70;57.60;;;;;;4990689;28;20398;-41
2022/09/08 12:37:57;;;;;;;5.07;4.20;;;23.80;57.60;;;;;;4992600;28;20437;-43
2022/09/08 12:40:31;;;;;;;5.23;4.73;;;23.80;57.70;;;;;;4991535;28;20898;-44
2022/09/08 12:43:13;;;;;;;10.13;6.43;;;23.80;57.80;;;;;;4992721;28;20410;-43
2022/09/08 12:45:48;;;;;;;7.43;5.10;;;23.80;57.90;;;;;;4992698;28;20661;-43
2022/09/08 12:48:32;;;;;;;7.23;4.17;;;23.80;57.90;;;;;;4992723;28;20425;-44
2022/09/08 12:51:08;;;;;;;6.20;4.30;;;23.90;57.90;;;;;;4992703;28;20398;-43
2022/09/08 12:53:57;;;;;;;5.07;4.30;;;23.90;57.60;;;;;;4992570;28;20877;-44
2022/09/08 12:56:40;;;;;;;5.10;4.27;;;23.90;57.70;;;;;;4992331;28;20406;-43
2022/09/08 12:59:30;;;;;;;4.83;3.77;;;23.90;57.70;;;;;;4992552;28;20413;-43
2022/09/08 13:02:20;;;;;;;5.43;4.10;;;23.80;57.70;;;;;;4992568;28;20406;-41
2022/09/08 13:04:58;;;;;;;7.20;4.30;;;23.80;58.00;;;;;;4992566;28;20592;-43
2022/09/08 13:07:41;;;;;;;5.33;4.40;;;23.80;58.10;;;;;;4991894;28;20813;-42
2022/09/08 13:10:10;;;;;;;5.77;3.87;;;22.90;57.80;;;;;;4992252;28;20413;-44
2022/09/08 13:13:06;;;;;;;3.40;3.10;;;23.90;58.10;;;;;;4992379;28;20406;-43
2022/09/08 13:15:46;;;;;;;4.93;2.83;;;23.90;58.00;;;;;;4992349;28;20406;-43
2022/09/08 13:18:53;;;;;;;5.30;2.83;;;23.80;57.70;;;;;;4992268;28;20434;-43